sensor_id;sensor_type;location;lat;lon;timestamp;P1;durP1;ratioP1;P2;durP2;ratioP2
18875;SDS011;9570;50.854;13.778;2023-07-16T00:02:11;5.33;;;2.83;;
18875;SDS011;9570;50.854;13.778;2023-07-16T00:04:36;9.33;;;2.77;;
18875;SDS011;9570;50.854;13.778;2023-07-16T00:07:02;5.77;;;2.70;;
18875;SDS011;9570;50.854;13.778;2023-07-16T00:09:28;4.13;;;2.80;;
18875;SDS011;9570;50.854;13.778;2023-07-16T00:11:54;4.33;;;2.80;;
18875;SDS011;9570;50.854;13.778;2023-07-16T00:14:19;6.47;;;2.90;;
18875;SDS011;9570;50.854;13.778;2023-07-16T00:16:45;8.30;;;3.33;;
18875;SDS011;9570;50.854;13.778;2023-07-16T00:19:10;5.37;;;3.03;;
18875;SDS011;9570;50.854;13.778;2023-07-16T00:21:38;7.53;;;3.10;;
18875;SDS011;9570;50.854;13.778;2023-07-16T00:24:04;8.57;;;2.60;;
18875;SDS011;9570;50.854;13.778;2023-07-16T00:26:30;4.13;;;3.03;;
18875;SDS011;9570;50.854;13.778;2023-07-16T00:28:55;2.97;;;2.67;;
18875;SDS011;9570;50.854;13.778;2023-07-16T00:31:21;5.57;;;2.87;;
18875;SDS011;9570;50.854;13.778;2023-07-16T00:33:46;5.30;;;3.10;;
18875;SDS011;9570;50.854;13.778;2023-07-16T00:36:12;3.27;;;2.90;;
18875;SDS011;9570;50.854;13.778;2023-07-16T00:38:37;4.63;;;3.10;;
18875;SDS011;9570;50.854;13.778;2023-07-16T00:41:05;4.60;;;2.73;;
18875;SDS011;9570;50.854;13.778;2023-07-16T00:43:30;4.27;;;3.07;;
18875;SDS011;9570;50.854;13.778;2023-07-16T00:45:56;5.10;;;3.07;;
18875;SDS011;9570;50.854;13.778;2023-07-16T00:48:22;8.13;;;3.10;;
18875;SDS011;9570;50.854;13.778;2023-07-16T00:50:47;5.23;;;3.03;;
18875;SDS011;9570;50.854;13.778;2023-07-16T00:53:15;8.30;;;3.10;;
18875;SDS011;9570;50.854;13.778;2023-07-16T00:55:41;5.37;;;3.10;;
18875;SDS011;9570;50.854;13.778;2023-07-16T00:58:07;4.40;;;2.90;;
18875;SDS011;9570;50.854;13.778;2023-07-16T01:00:36;5.37;;;3.30;;
18875;SDS011;9570;50.854;13.778;2023-07-16T01:03:03;4.77;;;3.10;;
18875;SDS011;9570;50.854;13.778;2023-07-16T01:05:31;3.83;;;2.80;;
18875;SDS011;9570;50.854;13.778;2023-07-16T01:08:04;4.03;;;3.03;;
18875;SDS011;9570;50.854;13.778;2023-07-16T01:10:33;4.77;;;2.90;;
18875;SDS011;9570;50.854;13.778;2023-07-16T01:12:59;3.33;;;3.00;;
18875;SDS011;9570;50.854;13.778;2023-07-16T01:15:25;3.87;;;2.70;;
18875;SDS011;9570;50.854;13.778;2023-07-16T01:17:51;3.10;;;2.20;;
18875;SDS011;9570;50.854;13.778;2023-07-16T01:20:16;2.83;;;2.13;;
18875;SDS011;9570;50.854;13.778;2023-07-16T01:28:38;1.63;;;1.53;;
18875;SDS011;9570;50.854;13.778;2023-07-16T01:31:28;1.60;;;1.43;;
18875;SDS011;9570;50.854;13.778;2023-07-16T01:33:54;1.50;;;1.30;;
18875;SDS011;9570;50.854;13.778;2023-07-16T01:36:20;2.03;;;1.43;;
18875;SDS011;9570;50.854;13.778;2023-07-16T01:38:47;1.67;;;1.50;;
18875;SDS011;9570;50.854;13.778;2023-07-16T01:41:13;2.93;;;1.60;;
18875;SDS011;9570;50.854;13.778;2023-07-16T01:43:38;4.03;;;1.30;;
18875;SDS011;9570;50.854;13.778;2023-07-16T01:46:04;2.60;;;1.43;;
18875;SDS011;9570;50.854;13.778;2023-07-16T01:48:31;2.33;;;1.60;;
18875;SDS011;9570;50.854;13.778;2023-07-16T01:50:58;1.50;;;1.40;;
18875;SDS011;9570;50.854;13.778;2023-07-16T01:53:24;1.50;;;1.40;;
18875;SDS011;9570;50.854;13.778;2023-07-16T01:55:50;2.67;;;1.40;;
18875;SDS011;9570;50.854;13.778;2023-07-16T01:58:15;2.17;;;1.50;;
18875;SDS011;9570;50.854;13.778;2023-07-16T02:00:42;2.13;;;1.50;;
18875;SDS011;9570;50.854;13.778;2023-07-16T02:03:07;1.30;;;1.20;;
18875;SDS011;9570;50.854;13.778;2023-07-16T02:05:33;1.43;;;1.33;;
18875;SDS011;9570;50.854;13.778;2023-07-16T02:07:59;3.37;;;1.30;;
18875;SDS011;9570;50.854;13.778;2023-07-16T02:10:25;2.60;;;1.57;;
18875;SDS011;9570;50.854;13.778;2023-07-16T02:12:50;1.70;;;1.37;;
18875;SDS011;9570;50.854;13.778;2023-07-16T02:15:16;1.40;;;1.30;;
18875;SDS011;9570;50.854;13.778;2023-07-16T02:17:42;1.50;;;1.40;;
18875;SDS011;9570;50.854;13.778;2023-07-16T02:20:08;1.57;;;1.30;;
18875;SDS011;9570;50.854;13.778;2023-07-16T02:22:35;1.37;;;1.27;;
18875;SDS011;9570;50.854;13.778;2023-07-16T02:25:02;2.23;;;1.30;;
18875;SDS011;9570;50.854;13.778;2023-07-16T02:27:28;3.10;;;1.40;;
18875;SDS011;9570;50.854;13.778;2023-07-16T02:29:54;1.60;;;1.30;;
18875;SDS011;9570;50.854;13.778;2023-07-16T02:32:19;1.33;;;1.10;;
18875;SDS011;9570;50.854;13.778;2023-07-16T02:34:45;1.53;;;1.40;;
18875;SDS011;9570;50.854;13.778;2023-07-16T02:37:10;1.70;;;1.27;;
18875;SDS011;9570;50.854;13.778;2023-07-16T02:39:36;1.30;;;1.20;;
18875;SDS011;9570;50.854;13.778;2023-07-16T02:42:03;2.47;;;1.27;;
18875;SDS011;9570;50.854;13.778;2023-07-16T02:44:28;1.37;;;1.10;;
18875;SDS011;9570;50.854;13.778;2023-07-16T02:46:54;1.23;;;0.80;;
18875;SDS011;9570;50.854;13.778;2023-07-16T02:49:19;1.90;;;1.00;;
18875;SDS011;9570;50.854;13.778;2023-07-16T02:51:45;1.27;;;1.10;;
18875;SDS011;9570;50.854;13.778;2023-07-16T02:54:10;1.10;;;0.90;;
18875;SDS011;9570;50.854;13.778;2023-07-16T02:56:36;1.40;;;1.00;;
18875;SDS011;9570;50.854;13.778;2023-07-16T02:59:01;4.00;;;1.33;;
18875;SDS011;9570;50.854;13.778;2023-07-16T03:01:27;1.50;;;1.20;;
18875;SDS011;9570;50.854;13.778;2023-07-16T03:03:52;4.70;;;1.40;;
18875;SDS011;9570;50.854;13.778;2023-07-16T03:06:18;3.10;;;1.20;;
18875;SDS011;9570;50.854;13.778;2023-07-16T03:08:43;2.40;;;1.20;;
18875;SDS011;9570;50.854;13.778;2023-07-16T03:11:10;4.00;;;1.10;;
18875;SDS011;9570;50.854;13.778;2023-07-16T03:13:36;2.07;;;1.27;;
18875;SDS011;9570;50.854;13.778;2023-07-16T03:16:01;3.40;;;1.40;;
18875;SDS011;9570;50.854;13.778;2023-07-16T03:18:28;2.10;;;1.30;;
18875;SDS011;9570;50.854;13.778;2023-07-16T03:20:54;3.13;;;1.50;;
18875;SDS011;9570;50.854;13.778;2023-07-16T03:23:20;1.93;;;1.40;;
18875;SDS011;9570;50.854;13.778;2023-07-16T03:25:46;1.70;;;1.33;;
18875;SDS011;9570;50.854;13.778;2023-07-16T03:28:12;5.03;;;1.50;;
18875;SDS011;9570;50.854;13.778;2023-07-16T03:30:38;3.03;;;1.50;;
18875;SDS011;9570;50.854;13.778;2023-07-16T03:33:04;4.97;;;1.87;;
18875;SDS011;9570;50.854;13.778;2023-07-16T03:35:29;4.83;;;1.60;;
18875;SDS011;9570;50.854;13.778;2023-07-16T03:37:55;3.37;;;1.73;;
18875;SDS011;9570;50.854;13.778;2023-07-16T03:40:22;3.43;;;1.60;;
18875;SDS011;9570;50.854;13.778;2023-07-16T03:42:49;3.00;;;1.70;;
18875;SDS011;9570;50.854;13.778;2023-07-16T03:45:15;3.27;;;1.63;;
18875;SDS011;9570;50.854;13.778;2023-07-16T03:47:40;3.80;;;1.97;;
18875;SDS011;9570;50.854;13.778;2023-07-16T03:50:06;2.13;;;1.80;;
18875;SDS011;9570;50.854;13.778;2023-07-16T03:52:32;1.70;;;1.60;;
18875;SDS011;9570;50.854;13.778;2023-07-16T03:54:57;3.37;;;1.90;;
18875;SDS011;9570;50.854;13.778;2023-07-16T03:57:23;3.20;;;1.83;;
18875;SDS011;9570;50.854;13.778;2023-07-16T03:59:49;2.83;;;1.90;;
18875;SDS011;9570;50.854;13.778;2023-07-16T04:02:14;1.90;;;1.70;;
18875;SDS011;9570;50.854;13.778;2023-07-16T04:04:40;2.23;;;1.77;;
18875;SDS011;9570;50.854;13.778;2023-07-16T04:07:05;2.97;;;2.10;;
18875;SDS011;9570;50.854;13.778;2023-07-16T04:09:31;3.17;;;1.83;;
18875;SDS011;9570;50.854;13.778;2023-07-16T04:11:56;3.00;;;1.60;;
18875;SDS011;9570;50.854;13.778;2023-07-16T04:14:22;2.60;;;1.70;;
18875;SDS011;9570;50.854;13.778;2023-07-16T04:16:47;3.33;;;1.97;;
18875;SDS011;9570;50.854;13.778;2023-07-16T04:19:13;3.63;;;1.80;;
18875;SDS011;9570;50.854;13.778;2023-07-16T04:21:38;2.30;;;1.67;;
18875;SDS011;9570;50.854;13.778;2023-07-16T04:24:04;2.53;;;1.80;;
18875;SDS011;9570;50.854;13.778;2023-07-16T04:26:30;2.43;;;1.80;;
18875;SDS011;9570;50.854;13.778;2023-07-16T04:28:56;2.53;;;1.97;;
18875;SDS011;9570;50.854;13.778;2023-07-16T04:31:22;3.00;;;2.00;;
18875;SDS011;9570;50.854;13.778;2023-07-16T04:33:48;1.90;;;1.70;;
18875;SDS011;9570;50.854;13.778;2023-07-16T04:36:13;3.93;;;1.97;;
18875;SDS011;9570;50.854;13.778;2023-07-16T04:38:39;4.53;;;1.90;;
18875;SDS011;9570;50.854;13.778;2023-07-16T04:41:04;1.67;;;1.57;;
18875;SDS011;9570;50.854;13.778;2023-07-16T04:43:30;2.43;;;1.70;;
18875;SDS011;9570;50.854;13.778;2023-07-16T04:45:55;2.47;;;1.90;;
18875;SDS011;9570;50.854;13.778;2023-07-16T04:48:21;4.53;;;1.70;;
18875;SDS011;9570;50.854;13.778;2023-07-16T04:50:46;2.10;;;1.77;;
18875;SDS011;9570;50.854;13.778;2023-07-16T04:53:12;3.73;;;1.77;;
18875;SDS011;9570;50.854;13.778;2023-07-16T04:55:37;1.87;;;1.50;;
18875;SDS011;9570;50.854;13.778;2023-07-16T04:58:04;1.70;;;1.50;;
18875;SDS011;9570;50.854;13.778;2023-07-16T05:00:31;3.60;;;1.80;;
18875;SDS011;9570;50.854;13.778;2023-07-16T05:02:57;1.50;;;1.40;;
18875;SDS011;9570;50.854;13.778;2023-07-16T05:05:23;1.63;;;1.40;;
18875;SDS011;9570;50.854;13.778;2023-07-16T05:07:48;3.37;;;2.00;;
18875;SDS011;9570;50.854;13.778;2023-07-16T05:10:14;2.00;;;1.60;;
18875;SDS011;9570;50.854;13.778;2023-07-16T05:12:39;1.90;;;1.70;;
18875;SDS011;9570;50.854;13.778;2023-07-16T05:15:05;3.20;;;1.67;;
18875;SDS011;9570;50.854;13.778;2023-07-16T05:17:31;2.80;;;1.40;;
18875;SDS011;9570;50.854;13.778;2023-07-16T05:19:56;2.13;;;1.40;;
18875;SDS011;9570;50.854;13.778;2023-07-16T05:22:22;2.90;;;1.50;;
18875;SDS011;9570;50.854;13.778;2023-07-16T05:24:47;5.07;;;1.60;;
18875;SDS011;9570;50.854;13.778;2023-07-16T05:27:13;3.30;;;1.80;;
18875;SDS011;9570;50.854;13.778;2023-07-16T05:29:38;1.77;;;1.47;;
18875;SDS011;9570;50.854;13.778;2023-07-16T05:32:04;1.73;;;1.53;;
18875;SDS011;9570;50.854;13.778;2023-07-16T05:34:30;1.67;;;1.57;;
18875;SDS011;9570;50.854;13.778;2023-07-16T05:36:55;3.50;;;1.60;;
18875;SDS011;9570;50.854;13.778;2023-07-16T05:39:24;1.70;;;1.60;;
18875;SDS011;9570;50.854;13.778;2023-07-16T05:41:49;2.53;;;1.67;;
18875;SDS011;9570;50.854;13.778;2023-07-16T05:44:15;1.90;;;1.63;;
18875;SDS011;9570;50.854;13.778;2023-07-16T05:46:40;3.93;;;1.70;;
18875;SDS011;9570;50.854;13.778;2023-07-16T05:49:06;1.97;;;1.40;;
18875;SDS011;9570;50.854;13.778;2023-07-16T05:51:31;1.67;;;1.40;;
18875;SDS011;9570;50.854;13.778;2023-07-16T05:53:57;3.47;;;1.47;;
18875;SDS011;9570;50.854;13.778;2023-07-16T05:56:22;1.50;;;1.30;;
18875;SDS011;9570;50.854;13.778;2023-07-16T05:58:48;3.03;;;1.50;;
18875;SDS011;9570;50.854;13.778;2023-07-16T06:01:13;1.90;;;1.50;;
18875;SDS011;9570;50.854;13.778;2023-07-16T06:03:39;1.77;;;1.60;;
18875;SDS011;9570;50.854;13.778;2023-07-16T06:06:04;3.13;;;1.50;;
18875;SDS011;9570;50.854;13.778;2023-07-16T06:08:30;3.37;;;1.57;;
18875;SDS011;9570;50.854;13.778;2023-07-16T06:10:55;2.20;;;1.40;;
18875;SDS011;9570;50.854;13.778;2023-07-16T06:13:21;2.13;;;1.40;;
18875;SDS011;9570;50.854;13.778;2023-07-16T06:15:47;1.73;;;1.30;;
18875;SDS011;9570;50.854;13.778;2023-07-16T06:18:13;1.90;;;1.50;;
18875;SDS011;9570;50.854;13.778;2023-07-16T06:20:38;1.50;;;1.40;;
18875;SDS011;9570;50.854;13.778;2023-07-16T06:23:07;1.63;;;1.40;;
18875;SDS011;9570;50.854;13.778;2023-07-16T06:25:33;1.33;;;1.23;;
18875;SDS011;9570;50.854;13.778;2023-07-16T06:27:58;2.63;;;1.40;;
18875;SDS011;9570;50.854;13.778;2023-07-16T06:30:24;2.83;;;1.30;;
18875;SDS011;9570;50.854;13.778;2023-07-16T06:32:49;1.47;;;1.17;;
18875;SDS011;9570;50.854;13.778;2023-07-16T06:35:15;0.97;;;0.97;;
18875;SDS011;9570;50.854;13.778;2023-07-16T06:37:40;2.30;;;1.30;;
18875;SDS011;9570;50.854;13.778;2023-07-16T06:40:06;1.30;;;1.20;;
18875;SDS011;9570;50.854;13.778;2023-07-16T06:42:32;2.83;;;1.23;;
18875;SDS011;9570;50.854;13.778;2023-07-16T06:44:57;1.60;;;1.20;;
18875;SDS011;9570;50.854;13.778;2023-07-16T06:47:23;3.80;;;1.40;;
18875;SDS011;9570;50.854;13.778;2023-07-16T06:49:48;2.40;;;1.20;;
18875;SDS011;9570;50.854;13.778;2023-07-16T06:52:20;1.77;;;1.40;;
18875;SDS011;9570;50.854;13.778;2023-07-16T06:54:47;1.20;;;1.10;;
18875;SDS011;9570;50.854;13.778;2023-07-16T06:57:13;3.20;;;1.30;;
18875;SDS011;9570;50.854;13.778;2023-07-16T06:59:39;1.20;;;1.10;;
18875;SDS011;9570;50.854;13.778;2023-07-16T07:02:04;1.40;;;1.27;;
18875;SDS011;9570;50.854;13.778;2023-07-16T07:04:31;3.10;;;1.20;;
18875;SDS011;9570;50.854;13.778;2023-07-16T07:06:57;1.33;;;1.23;;
18875;SDS011;9570;50.854;13.778;2023-07-16T07:09:22;2.70;;;1.20;;
18875;SDS011;9570;50.854;13.778;2023-07-16T07:11:48;1.87;;;1.40;;
18875;SDS011;9570;50.854;13.778;2023-07-16T07:14:13;2.03;;;1.30;;
18875;SDS011;9570;50.854;13.778;2023-07-16T07:16:38;1.40;;;1.30;;
18875;SDS011;9570;50.854;13.778;2023-07-16T07:19:05;1.60;;;1.50;;
18875;SDS011;9570;50.854;13.778;2023-07-16T07:21:30;1.57;;;1.47;;
18875;SDS011;9570;50.854;13.778;2023-07-16T07:23:56;2.00;;;1.20;;
18875;SDS011;9570;50.854;13.778;2023-07-16T07:26:21;1.40;;;1.30;;
18875;SDS011;9570;50.854;13.778;2023-07-16T07:28:47;2.00;;;1.33;;
18875;SDS011;9570;50.854;13.778;2023-07-16T07:31:13;1.57;;;1.30;;
18875;SDS011;9570;50.854;13.778;2023-07-16T07:33:38;2.73;;;1.40;;
18875;SDS011;9570;50.854;13.778;2023-07-16T07:36:04;3.43;;;1.60;;
18875;SDS011;9570;50.854;13.778;2023-07-16T07:38:29;1.50;;;1.40;;
18875;SDS011;9570;50.854;13.778;2023-07-16T07:40:55;1.70;;;1.60;;
18875;SDS011;9570;50.854;13.778;2023-07-16T07:43:20;2.07;;;1.20;;
18875;SDS011;9570;50.854;13.778;2023-07-16T07:45:46;2.33;;;1.53;;
18875;SDS011;9570;50.854;13.778;2023-07-16T07:48:11;2.43;;;1.50;;
18875;SDS011;9570;50.854;13.778;2023-07-16T07:50:37;2.20;;;1.50;;
18875;SDS011;9570;50.854;13.778;2023-07-16T07:53:02;1.80;;;1.43;;
18875;SDS011;9570;50.854;13.778;2023-07-16T07:55:28;2.03;;;1.50;;
18875;SDS011;9570;50.854;13.778;2023-07-16T07:57:53;1.80;;;1.60;;
18875;SDS011;9570;50.854;13.778;2023-07-16T08:00:19;2.30;;;1.47;;
18875;SDS011;9570;50.854;13.778;2023-07-16T08:02:45;1.70;;;1.60;;
18875;SDS011;9570;50.854;13.778;2023-07-16T08:05:10;2.13;;;1.80;;
18875;SDS011;9570;50.854;13.778;2023-07-16T08:07:36;2.33;;;1.60;;
18875;SDS011;9570;50.854;13.778;2023-07-16T08:10:01;2.47;;;1.53;;
18875;SDS011;9570;50.854;13.778;2023-07-16T08:12:27;1.67;;;1.57;;
18875;SDS011;9570;50.854;13.778;2023-07-16T08:14:53;3.00;;;1.97;;
18875;SDS011;9570;50.854;13.778;2023-07-16T08:17:18;1.60;;;1.50;;
18875;SDS011;9570;50.854;13.778;2023-07-16T08:19:44;3.37;;;1.50;;
18875;SDS011;9570;50.854;13.778;2023-07-16T08:22:09;2.93;;;1.50;;
18875;SDS011;9570;50.854;13.778;2023-07-16T08:24:36;3.43;;;1.73;;
18875;SDS011;9570;50.854;13.778;2023-07-16T08:27:02;4.53;;;1.90;;
18875;SDS011;9570;50.854;13.778;2023-07-16T08:29:27;2.03;;;1.70;;
18875;SDS011;9570;50.854;13.778;2023-07-16T08:31:53;2.73;;;1.73;;
18875;SDS011;9570;50.854;13.778;2023-07-16T08:34:18;3.97;;;2.20;;
18875;SDS011;9570;50.854;13.778;2023-07-16T08:36:44;2.63;;;1.70;;
18875;SDS011;9570;50.854;13.778;2023-07-16T08:39:09;3.53;;;1.73;;
18875;SDS011;9570;50.854;13.778;2023-07-16T08:41:35;2.47;;;1.80;;
18875;SDS011;9570;50.854;13.778;2023-07-16T08:44:00;3.77;;;1.87;;
18875;SDS011;9570;50.854;13.778;2023-07-16T08:46:26;2.53;;;1.67;;
18875;SDS011;9570;50.854;13.778;2023-07-16T08:48:52;1.93;;;1.73;;
18875;SDS011;9570;50.854;13.778;2023-07-16T08:51:18;2.13;;;1.70;;
18875;SDS011;9570;50.854;13.778;2023-07-16T08:53:46;3.03;;;1.70;;
18875;SDS011;9570;50.854;13.778;2023-07-16T08:56:12;3.83;;;1.80;;
18875;SDS011;9570;50.854;13.778;2023-07-16T08:58:37;2.90;;;1.67;;
18875;SDS011;9570;50.854;13.778;2023-07-16T09:01:04;2.93;;;1.97;;
18875;SDS011;9570;50.854;13.778;2023-07-16T09:03:31;2.90;;;1.80;;
18875;SDS011;9570;50.854;13.778;2023-07-16T09:05:56;2.20;;;1.70;;
18875;SDS011;9570;50.854;13.778;2023-07-16T09:08:22;3.27;;;1.93;;
18875;SDS011;9570;50.854;13.778;2023-07-16T09:10:54;3.47;;;1.80;;
18875;SDS011;9570;50.854;13.778;2023-07-16T09:13:20;3.20;;;1.70;;
18875;SDS011;9570;50.854;13.778;2023-07-16T09:15:50;3.30;;;1.87;;
18875;SDS011;9570;50.854;13.778;2023-07-16T09:18:23;3.77;;;1.80;;
18875;SDS011;9570;50.854;13.778;2023-07-16T09:20:56;3.33;;;1.90;;
18875;SDS011;9570;50.854;13.778;2023-07-16T09:23:25;3.00;;;2.10;;
18875;SDS011;9570;50.854;13.778;2023-07-16T09:25:54;2.60;;;1.80;;
18875;SDS011;9570;50.854;13.778;2023-07-16T09:28:20;3.00;;;1.60;;
18875;SDS011;9570;50.854;13.778;2023-07-16T09:30:46;3.07;;;1.90;;
18875;SDS011;9570;50.854;13.778;2023-07-16T09:33:13;2.03;;;1.87;;
18875;SDS011;9570;50.854;13.778;2023-07-16T09:35:41;3.80;;;1.70;;
18875;SDS011;9570;50.854;13.778;2023-07-16T09:38:07;2.97;;;1.87;;
18875;SDS011;9570;50.854;13.778;2023-07-16T09:40:37;4.40;;;1.90;;
18875;SDS011;9570;50.854;13.778;2023-07-16T09:43:03;4.90;;;2.10;;
18875;SDS011;9570;50.854;13.778;2023-07-16T09:45:29;2.30;;;1.77;;
18875;SDS011;9570;50.854;13.778;2023-07-16T09:47:55;7.37;;;2.17;;
18875;SDS011;9570;50.854;13.778;2023-07-16T09:50:24;3.50;;;1.90;;
18875;SDS011;9570;50.854;13.778;2023-07-16T09:52:53;2.80;;;1.80;;
18875;SDS011;9570;50.854;13.778;2023-07-16T09:55:21;2.57;;;1.60;;
18875;SDS011;9570;50.854;13.778;2023-07-16T09:57:47;6.77;;;2.00;;
18875;SDS011;9570;50.854;13.778;2023-07-16T10:00:15;2.27;;;1.90;;
18875;SDS011;9570;50.854;13.778;2023-07-16T10:02:42;3.20;;;1.80;;
18875;SDS011;9570;50.854;13.778;2023-07-16T10:05:11;2.80;;;1.93;;
18875;SDS011;9570;50.854;13.778;2023-07-16T10:07:37;2.53;;;2.00;;
18875;SDS011;9570;50.854;13.778;2023-07-16T10:10:07;4.93;;;2.10;;
18875;SDS011;9570;50.854;13.778;2023-07-16T10:12:36;3.23;;;2.30;;
18875;SDS011;9570;50.854;13.778;2023-07-16T10:15:02;3.37;;;1.90;;
18875;SDS011;9570;50.854;13.778;2023-07-16T10:17:30;2.80;;;2.13;;
18875;SDS011;9570;50.854;13.778;2023-07-16T10:19:56;3.22;;;2.10;;
18875;SDS011;9570;50.854;13.778;2023-07-16T10:27:44;4.57;;;2.10;;
18875;SDS011;9570;50.854;13.778;2023-07-16T10:30:11;3.77;;;2.00;;
18875;SDS011;9570;50.854;13.778;2023-07-16T10:32:37;2.77;;;2.13;;
18875;SDS011;9570;50.854;13.778;2023-07-16T10:35:03;2.93;;;2.10;;
18875;SDS011;9570;50.854;13.778;2023-07-16T10:37:30;2.30;;;2.00;;
18875;SDS011;9570;50.854;13.778;2023-07-16T10:39:56;3.97;;;1.83;;
18875;SDS011;9570;50.854;13.778;2023-07-16T10:42:23;2.22;;;1.60;;
18875;SDS011;9570;50.854;13.778;2023-07-16T10:44:50;5.07;;;1.98;;
18875;SDS011;9570;50.854;13.778;2023-07-16T10:47:23;3.05;;;1.90;;
18875;SDS011;9570;50.854;13.778;2023-07-16T10:49:50;3.72;;;1.90;;
18875;SDS011;9570;50.854;13.778;2023-07-16T10:52:20;2.35;;;1.83;;
18875;SDS011;9570;50.854;13.778;2023-07-16T10:54:46;3.17;;;1.85;;
18875;SDS011;9570;50.854;13.778;2023-07-16T10:57:14;3.83;;;1.90;;
18875;SDS011;9570;50.854;13.778;2023-07-16T10:59:41;2.30;;;1.83;;
18875;SDS011;9570;50.854;13.778;2023-07-16T11:02:10;3.40;;;2.10;;
18875;SDS011;9570;50.854;13.778;2023-07-16T11:04:37;2.67;;;1.93;;
18875;SDS011;9570;50.854;13.778;2023-07-16T11:07:06;3.00;;;1.80;;
18875;SDS011;9570;50.854;13.778;2023-07-16T11:09:33;2.47;;;1.63;;
18875;SDS011;9570;50.854;13.778;2023-07-16T11:12:06;4.43;;;2.00;;
18875;SDS011;9570;50.854;13.778;2023-07-16T11:14:32;3.23;;;1.90;;
18875;SDS011;9570;50.854;13.778;2023-07-16T11:17:03;3.67;;;2.00;;
18875;SDS011;9570;50.854;13.778;2023-07-16T11:19:31;5.13;;;1.90;;
18875;SDS011;9570;50.854;13.778;2023-07-16T11:21:56;2.60;;;1.80;;
18875;SDS011;9570;50.854;13.778;2023-07-16T11:24:22;4.43;;;1.97;;
18875;SDS011;9570;50.854;13.778;2023-07-16T11:26:51;7.17;;;2.20;;
18875;SDS011;9570;50.854;13.778;2023-07-16T11:29:17;3.90;;;1.80;;
18875;SDS011;9570;50.854;13.778;2023-07-16T11:31:42;2.70;;;1.97;;
18875;SDS011;9570;50.854;13.778;2023-07-16T11:34:12;3.93;;;2.00;;
18875;SDS011;9570;50.854;13.778;2023-07-16T11:36:38;3.20;;;2.07;;
18875;SDS011;9570;50.854;13.778;2023-07-16T11:39:04;2.70;;;1.80;;
18875;SDS011;9570;50.854;13.778;2023-07-16T11:41:30;2.27;;;2.00;;
18875;SDS011;9570;50.854;13.778;2023-07-16T11:43:58;2.70;;;1.80;;
18875;SDS011;9570;50.854;13.778;2023-07-16T11:46:30;4.20;;;2.20;;
18875;SDS011;9570;50.854;13.778;2023-07-16T11:48:58;4.23;;;2.13;;
18875;SDS011;9570;50.854;13.778;2023-07-16T11:51:24;4.33;;;2.20;;
18875;SDS011;9570;50.854;13.778;2023-07-16T11:53:49;5.10;;;2.53;;
18875;SDS011;9570;50.854;13.778;2023-07-16T11:56:15;3.57;;;1.73;;
18875;SDS011;9570;50.854;13.778;2023-07-16T11:58:40;3.07;;;2.00;;
18875;SDS011;9570;50.854;13.778;2023-07-16T12:01:06;4.63;;;2.10;;
18875;SDS011;9570;50.854;13.778;2023-07-16T12:03:31;2.77;;;2.13;;
18875;SDS011;9570;50.854;13.778;2023-07-16T12:05:57;2.93;;;1.90;;
18875;SDS011;9570;50.854;13.778;2023-07-16T12:08:22;2.33;;;2.10;;
18875;SDS011;9570;50.854;13.778;2023-07-16T12:10:48;2.30;;;2.10;;
18875;SDS011;9570;50.854;13.778;2023-07-16T12:13:13;2.87;;;1.57;;
18875;SDS011;9570;50.854;13.778;2023-07-16T12:15:39;2.20;;;2.00;;
18875;SDS011;9570;50.854;13.778;2023-07-16T12:18:04;4.33;;;2.13;;
18875;SDS011;9570;50.854;13.778;2023-07-16T12:20:30;3.27;;;2.00;;
18875;SDS011;9570;50.854;13.778;2023-07-16T12:22:55;2.43;;;1.70;;
18875;SDS011;9570;50.854;13.778;2023-07-16T12:25:21;3.73;;;2.30;;
18875;SDS011;9570;50.854;13.778;2023-07-16T12:27:46;3.80;;;1.80;;
18875;SDS011;9570;50.854;13.778;2023-07-16T12:30:12;3.20;;;2.17;;
18875;SDS011;9570;50.854;13.778;2023-07-16T12:32:37;3.23;;;2.03;;
18875;SDS011;9570;50.854;13.778;2023-07-16T12:35:03;4.90;;;2.20;;
18875;SDS011;9570;50.854;13.778;2023-07-16T12:37:29;3.13;;;2.00;;
18875;SDS011;9570;50.854;13.778;2023-07-16T12:39:54;2.97;;;1.97;;
18875;SDS011;9570;50.854;13.778;2023-07-16T12:42:20;3.53;;;2.10;;
18875;SDS011;9570;50.854;13.778;2023-07-16T12:44:45;3.63;;;2.00;;
18875;SDS011;9570;50.854;13.778;2023-07-16T12:47:11;3.23;;;2.00;;
18875;SDS011;9570;50.854;13.778;2023-07-16T12:49:36;3.70;;;2.20;;
18875;SDS011;9570;50.854;13.778;2023-07-16T12:52:02;3.00;;;2.00;;
18875;SDS011;9570;50.854;13.778;2023-07-16T12:54:28;7.00;;;2.43;;
18875;SDS011;9570;50.854;13.778;2023-07-16T12:56:54;3.57;;;2.07;;
18875;SDS011;9570;50.854;13.778;2023-07-16T12:59:20;2.57;;;1.90;;
18875;SDS011;9570;50.854;13.778;2023-07-16T13:01:45;4.13;;;2.30;;
18875;SDS011;9570;50.854;13.778;2023-07-16T13:04:11;3.60;;;2.53;;
18875;SDS011;9570;50.854;13.778;2023-07-16T13:06:36;3.60;;;1.73;;
18875;SDS011;9570;50.854;13.778;2023-07-16T13:09:02;3.90;;;2.00;;
18875;SDS011;9570;50.854;13.778;2023-07-16T13:11:30;2.20;;;1.90;;
18875;SDS011;9570;50.854;13.778;2023-07-16T13:13:55;3.80;;;2.00;;
18875;SDS011;9570;50.854;13.778;2023-07-16T13:16:21;3.40;;;1.80;;
18875;SDS011;9570;50.854;13.778;2023-07-16T13:18:46;3.03;;;1.80;;
18875;SDS011;9570;50.854;13.778;2023-07-16T13:21:12;2.67;;;1.90;;
18875;SDS011;9570;50.854;13.778;2023-07-16T13:23:38;2.87;;;1.93;;
18875;SDS011;9570;50.854;13.778;2023-07-16T13:26:03;2.07;;;1.83;;
18875;SDS011;9570;50.854;13.778;2023-07-16T13:28:28;4.40;;;2.10;;
18875;SDS011;9570;50.854;13.778;2023-07-16T13:30:54;2.67;;;1.80;;
18875;SDS011;9570;50.854;13.778;2023-07-16T13:33:20;2.57;;;2.07;;
18875;SDS011;9570;50.854;13.778;2023-07-16T13:35:45;3.60;;;1.90;;
18875;SDS011;9570;50.854;13.778;2023-07-16T13:38:11;4.27;;;1.97;;
18875;SDS011;9570;50.854;13.778;2023-07-16T13:40:36;5.47;;;2.23;;
18875;SDS011;9570;50.854;13.778;2023-07-16T13:43:02;2.40;;;2.00;;
18875;SDS011;9570;50.854;13.778;2023-07-16T13:45:28;2.77;;;1.80;;
18875;SDS011;9570;50.854;13.778;2023-07-16T13:47:53;4.03;;;2.00;;
18875;SDS011;9570;50.854;13.778;2023-07-16T13:50:20;6.10;;;2.07;;
18875;SDS011;9570;50.854;13.778;2023-07-16T13:52:46;3.50;;;1.80;;
18875;SDS011;9570;50.854;13.778;2023-07-16T13:55:11;5.77;;;1.97;;
18875;SDS011;9570;50.854;13.778;2023-07-16T13:57:37;3.80;;;2.10;;
18875;SDS011;9570;50.854;13.778;2023-07-16T14:00:02;2.20;;;1.80;;
18875;SDS011;9570;50.854;13.778;2023-07-16T14:02:29;3.73;;;1.90;;
18875;SDS011;9570;50.854;13.778;2023-07-16T14:04:55;2.37;;;1.70;;
18875;SDS011;9570;50.854;13.778;2023-07-16T14:07:20;3.00;;;1.90;;
18875;SDS011;9570;50.854;13.778;2023-07-16T14:09:46;3.20;;;2.10;;
18875;SDS011;9570;50.854;13.778;2023-07-16T14:12:11;2.40;;;1.77;;
18875;SDS011;9570;50.854;13.778;2023-07-16T14:14:37;3.43;;;2.20;;
18875;SDS011;9570;50.854;13.778;2023-07-16T14:17:03;3.27;;;2.03;;
18875;SDS011;9570;50.854;13.778;2023-07-16T14:19:28;3.07;;;2.17;;
18875;SDS011;9570;50.854;13.778;2023-07-16T14:21:55;2.53;;;1.60;;
18875;SDS011;9570;50.854;13.778;2023-07-16T14:24:20;2.87;;;2.07;;
18875;SDS011;9570;50.854;13.778;2023-07-16T14:26:46;3.20;;;2.07;;
18875;SDS011;9570;50.854;13.778;2023-07-16T14:29:11;3.13;;;2.20;;
18875;SDS011;9570;50.854;13.778;2023-07-16T14:31:37;3.43;;;2.20;;
18875;SDS011;9570;50.854;13.778;2023-07-16T14:34:03;3.77;;;1.90;;
18875;SDS011;9570;50.854;13.778;2023-07-16T14:36:28;2.90;;;1.70;;
18875;SDS011;9570;50.854;13.778;2023-07-16T14:38:54;2.83;;;1.90;;
18875;SDS011;9570;50.854;13.778;2023-07-16T14:41:20;4.50;;;2.03;;
18875;SDS011;9570;50.854;13.778;2023-07-16T14:43:45;3.77;;;1.80;;
18875;SDS011;9570;50.854;13.778;2023-07-16T14:46:13;3.23;;;2.10;;
18875;SDS011;9570;50.854;13.778;2023-07-16T14:48:41;3.70;;;2.03;;
18875;SDS011;9570;50.854;13.778;2023-07-16T14:51:10;2.70;;;1.70;;
18875;SDS011;9570;50.854;13.778;2023-07-16T14:53:36;4.20;;;2.00;;